Time;durP1;ratioP1;P1;durP2;ratioP2;P2;SDS_P1;SDS_P2;PMS_P1;PMS_P2;Temp;Humidity;BMP_temperature;BMP_pressure;BME280_temperature;BME280_humidity;BME280_pressure;Samples;Min_cycle;Max_cycle;Signal;HPM_P1;HPM_P2
2022/02/18 00:01:59;;;;;;;;;;;;;;;7.37;54.50;97618.38;4949819;28;20388;-76
2022/02/18 00:04:51;;;;;;;;;;;;;;;7.49;54.10;97622.19;4951144;28;19935;-77
2022/02/18 00:07:19;;;;;;;;;;;;;;;7.48;54.28;97619.81;4919056;29;19958;-77
2022/02/18 00:09:48;;;;;;;;;;;;;;;7.58;54.67;97625.03;4950281;28;20397;-77
2022/02/18 00:12:16;;;;;;;;;;;;;;;7.54;56.26;97619.41;4951917;28;19957;-76
2022/02/18 00:14:52;;;;;;;;;;;;;;;7.51;57.28;97613.78;4950903;28;20320;-75
2022/02/18 00:17:20;;;;;;;;;;;;;;;7.64;57.48;97617.63;4949858;28;19927;-76
2022/02/18 00:19:51;;;;;;;;;;;;;;;7.54;58.35;97621.31;4950508;28;19993;-78
2022/02/18 00:22:19;;;;;;;;;;;;;;;7.46;59.12;97622.03;4936764;29;19926;-79
2022/02/18 00:24:47;;;;;;;;;;;;;;;7.60;59.14;97622.81;4949855;28;19962;-77
2022/02/18 00:27:16;;;;;;;;;;;;;;;7.66;59.22;97627.03;4944144;29;19934;-77
2022/02/18 00:29:44;;;;;;;;;;;;;;;7.72;59.03;97631.22;4933050;29;20005;-77
2022/02/18 00:32:12;;;;;;;;;;;;;;;7.71;60.37;97621.53;4932101;29;19931;-79
2022/02/18 00:34:40;;;;;;;;;;;;;;;7.54;60.91;97627.53;4950616;28;19958;-76
2022/02/18 00:37:10;;;;;;;;;;;;;;;7.63;60.73;97621.44;4923615;29;19926;-76
2022/02/18 00:39:38;;;;;;;;;;;;;;;7.57;61.01;97620.72;4952137;28;20028;-77
2022/02/18 00:42:08;;;;;;;;;;;;;;;7.53;61.59;97630.53;4917583;29;20512;-76
2022/02/18 00:44:42;;;;;;;;;;;;;;;7.74;60.75;97634.47;4928848;29;20021;-76
2022/02/18 00:47:11;;;;;;;;;;;;;;;7.48;61.75;97628.72;4931428;28;19989;-77
2022/02/18 00:50:05;;;;;;;;;;;;;;;7.53;61.69;97630.53;4933334;28;19926;-77
2022/02/18 00:52:33;;;;;;;;;;;;;;;7.53;61.53;97612.41;4916442;29;19981;-76
2022/02/18 00:55:01;;;;;;;;;;;;;;;7.42;62.69;97615.59;4933156;29;19954;-77
2022/02/18 00:57:29;;;;;;;;;;;;;;;7.39;62.21;97624.28;4931382;29;20354;-78
2022/02/18 00:59:58;;;;;;;;;;;;;;;7.53;62.32;97622.41;4915184;29;19927;-76
2022/02/18 01:02:27;;;;;;;;;;;;;;;7.43;62.52;97626.09;4898686;29;19930;-79
2022/02/18 01:04:55;;;;;;;;;;;;;;;7.52;62.23;97628.94;4915416;29;20342;-76
2022/02/18 01:07:25;;;;;;;;;;;;;;;7.34;62.55;97617.06;4916321;29;19927;-79
2022/02/18 01:09:56;;;;;;;;;;;;;;;7.38;62.56;97626.19;4915119;29;19931;-77
2022/02/18 01:12:24;;;;;;;;;;;;;;;7.33;62.92;97612.75;4930142;29;19962;-77
2022/02/18 01:14:52;;;;;;;;;;;;;;;7.32;63.10;97620.06;4932507;29;19934;-77
2022/02/18 01:17:21;;;;;;;;;;;;;;;7.37;62.80;97618.38;4930051;29;19935;-77
2022/02/18 01:19:49;;;;;;;;;;;;;;;7.34;62.92;97622.47;4913724;29;19927;-79
2022/02/18 01:22:18;;;;;;;;;;;;;;;7.41;62.78;97612.09;4932936;29;19930;-80
2022/02/18 01:24:47;;;;;;;;;;;;;;;7.39;62.39;97616.19;4932296;29;19927;-80
2022/02/18 01:27:18;;;;;;;;;;;;;;;7.31;62.89;97620.38;4916182;29;20386;-77
2022/02/18 01:29:46;;;;;;;;;;;;;;;7.44;62.16;97633.09;4914307;29;19978;-78
2022/02/18 01:32:14;;;;;;;;;;;;;;;7.33;62.52;97629.78;4911158;29;20341;-78
2022/02/18 01:34:43;;;;;;;;;;;;;;;7.35;62.44;97624.91;4932290;29;19935;-77
2022/02/18 01:37:15;;;;;;;;;;;;;;;7.37;62.42;97632.69;4897978;29;19927;-78
2022/02/18 01:39:42;;;;;;;;;;;;;;;7.45;62.12;97639.31;4930676;29;20373;-78
2022/02/18 01:42:10;;;;;;;;;;;;;;;7.48;62.08;97627.91;4915260;29;19926;-77
2022/02/18 01:44:39;;;;;;;;;;;;;;;7.45;62.04;97629.28;4928949;29;19945;-78
2022/02/18 01:47:15;;;;;;;;;;;;;;;7.46;62.15;97627.44;4912032;29;19931;-77
2022/02/18 01:49:45;;;;;;;;;;;;;;;7.48;61.46;97619.81;4928849;29;19935;-76
2022/02/18 01:52:13;;;;;;;;;;;;;;;7.49;61.59;97622.19;4913279;29;20013;-78
2022/02/18 01:54:42;;;;;;;;;;;;;;;7.49;61.85;97616.00;4931860;29;20021;-78
2022/02/18 01:57:09;;;;;;;;;;;;;;;7.50;61.72;97609.50;4916943;29;19927;-77
2022/02/18 01:59:37;;;;;;;;;;;;;;;7.44;61.46;97602.56;4916566;29;19927;-77
2022/02/18 02:02:06;;;;;;;;;;;;;;;7.54;61.51;97603.19;4924838;29;19927;-80
2022/02/18 02:04:35;;;;;;;;;;;;;;;7.57;61.16;97601.81;4918595;29;19927;-79
2022/02/18 02:07:06;;;;;;;;;;;;;;;7.49;61.38;97608.69;4913423;29;19927;-76
2022/02/18 02:09:35;;;;;;;;;;;;;;;7.47;60.72;97605.50;4921071;29;19934;-77
2022/02/18 02:12:04;;;;;;;;;;;;;;;7.55;60.45;97593.97;4911665;29;20001;-76
2022/02/18 02:14:40;;;;;;;;;;;;;;;7.52;61.09;97599.19;4922699;29;20021;-76
2022/02/18 02:17:08;;;;;;;;;;;;;;;7.55;60.64;97609.41;4895876;29;19927;-77
2022/02/18 02:19:36;;;;;;;;;;;;;;;7.45;60.59;97599.56;4914500;29;19934;-78
2022/02/18 02:22:06;;;;;;;;;;;;;;;7.55;60.44;97598.59;4931489;29;19935;-77
2022/02/18 02:24:35;;;;;;;;;;;;;;;7.54;60.72;97596.97;4930504;29;19927;-78
2022/02/18 02:27:04;;;;;;;;;;;;;;;7.56;59.82;97600.19;4929289;29;19934;-78
2022/02/18 02:29:32;;;;;;;;;;;;;;;7.59;60.50;97610.41;4913950;29;19935;-77
2022/02/18 02:32:00;;;;;;;;;;;;;;;7.58;59.73;97614.22;4928183;29;19970;-79
2022/02/18 02:34:33;;;;;;;;;;;;;;;7.48;60.41;97611.69;4916066;29;19939;-78
2022/02/18 02:37:02;;;;;;;;;;;;;;;7.44;59.97;97613.38;4912221;29;20005;-77
2022/02/18 02:39:33;;;;;;;;;;;;;;;7.40;60.47;97615.06;4897975;29;20020;-77
2022/02/18 02:42:03;;;;;;;;;;;;;;;7.46;60.03;97609.31;4930739;29;19933;-77
2022/02/18 02:44:31;;;;;;;;;;;;;;;7.37;60.40;97612.97;4908971;29;19926;-77
2022/02/18 02:47:13;;;;;;;;;;;;;;;7.40;60.29;97607.75;4896431;29;19982;-79
2022/02/18 02:49:42;;;;;;;;;;;;;;;7.34;60.43;97612.47;4930543;29;19927;-77
2022/02/18 02:52:09;;;;;;;;;;;;;;;7.41;60.26;97598.59;4925194;29;19989;-79
2022/02/18 02:54:38;;;;;;;;;;;;;;;7.33;60.30;97600.06;4929241;29;19927;-77
2022/02/18 02:57:12;;;;;;;;;;;;;;;7.29;60.66;97612.53;4916031;29;19927;-77
2022/02/18 02:59:49;;;;;;;;;;;;;;;7.26;60.75;97613.16;4930332;29;19934;-78
2022/02/18 03:02:17;;;;;;;;;;;;;;;7.39;60.64;97624.28;4910792;29;19927;-77
2022/02/18 03:04:45;;;;;;;;;;;;;;;7.33;60.86;97612.75;4907794;29;20394;-79
2022/02/18 03:07:14;;;;;;;;;;;;;;;7.27;60.44;97601.25;4924834;29;19978;-78
2022/02/18 03:10:08;;;;;;;;;;;;;;;7.31;60.81;97594.16;4929579;29;19959;-79
2022/02/18 03:12:37;;;;;;;;;;;;;;;7.24;61.07;97588.31;4930374;29;19958;-77
2022/02/18 03:15:10;;;;;;;;;;;;;;;7.30;61.08;97594.47;4926532;29;19931;-77
2022/02/18 03:17:40;;;;;;;;;;;;;;;7.29;61.18;97596.34;4912198;29;19935;-76
2022/02/18 03:20:29;;;;;;;;;;;;;;;7.34;61.09;97590.84;4934979;29;19966;-78
2022/02/18 03:22:57;;;;;;;;;;;;;;;7.25;60.94;97606.16;4915396;29;19978;-78
2022/02/18 03:25:25;;;;;;;;;;;;;;;7.24;61.49;97595.63;4927054;29;19966;-77
2022/02/18 03:27:55;;;;;;;;;;;;;;;7.14;61.41;97615.53;4930871;29;19931;-76
2022/02/18 03:30:26;;;;;;;;;;;;;;;7.15;61.52;97622.53;4927358;29;20288;-79
2022/02/18 03:32:54;;;;;;;;;;;;;;;7.24;61.06;97634.25;4944518;29;19927;-77
2022/02/18 03:35:24;;;;;;;;;;;;;;;7.14;61.26;97626.34;4933917;29;19926;-77
2022/02/18 03:37:53;;;;;;;;;;;;;;;7.08;61.67;97620.22;4913691;29;20994;-77
2022/02/18 03:40:34;;;;;;;;;;;;;;;7.10;61.55;97628.03;4916327;29;20345;-78
2022/02/18 03:43:03;;;;;;;;;;;;;;;7.13;61.28;97605.81;4933010;29;19931;-78
2022/02/18 03:45:37;;;;;;;;;;;;;;;7.20;61.64;97600.03;4929452;29;19934;-80
2022/02/18 03:48:10;;;;;;;;;;;;;;;7.15;61.57;97600.94;4932735;29;19931;-78
2022/02/18 03:50:44;;;;;;;;;;;;;;;7.19;62.06;97604.66;4936536;29;19931;-76
2022/02/18 03:53:14;;;;;;;;;;;;;;;7.19;62.23;97609.22;4932040;29;20396;-76
2022/02/18 03:55:59;;;;;;;;;;;;;;;7.18;62.18;97615.72;4931328;29;19927;-78
2022/02/18 03:58:29;;;;;;;;;;;;;;;7.11;62.10;97613.41;4947729;29;19934;-76
2022/02/18 04:00:57;;;;;;;;;;;;;;;7.19;62.13;97612.75;4931271;29;19962;-76
2022/02/18 04:03:25;;;;;;;;;;;;;;;7.13;61.87;97611.22;4931921;29;20029;-76
2022/02/18 04:06:13;;;;;;;;;;;;;;;7.16;62.55;97618.72;4932286;29;19941;-76
2022/02/18 04:08:47;;;;;;;;;;;;;;;7.13;62.14;97616.63;4931558;29;19934;-78
2022/02/18 04:11:33;;;;;;;;;;;;;;;7.26;61.94;97612.38;4930530;29;20022;-78
2022/02/18 04:14:06;;;;;;;;;;;;;;;7.36;61.84;97606.78;4932529;29;20282;-76
2022/02/18 04:16:35;;;;;;;;;;;;;;;7.29;62.39;97609.84;4947029;28;19953;-76
2022/02/18 04:19:09;;;;;;;;;;;;;;;7.18;62.25;97615.72;4915777;29;20345;-76
2022/02/18 04:21:43;;;;;;;;;;;;;;;7.19;62.35;97612.75;4949078;28;20317;-77
2022/02/18 04:24:17;;;;;;;;;;;;;;;7.26;62.47;97605.06;4931567;29;19938;-76
2022/02/18 04:26:45;;;;;;;;;;;;;;;7.37;61.51;97605.66;4931489;29;19959;-76
2022/02/18 04:29:14;;;;;;;;;;;;;;;7.32;62.16;97611.16;4933735;29;19937;-76
2022/02/18 04:31:42;;;;;;;;;;;;;;;7.49;61.94;97605.19;4931068;29;20001;-76
2022/02/18 04:34:11;;;;;;;;;;;;;;;7.41;62.09;97609.41;4922110;29;19935;-77
2022/02/18 04:36:39;;;;;;;;;;;;;;;7.39;61.83;97605.38;4931104;29;19935;-78
2022/02/18 04:39:07;;;;;;;;;;;;;;;7.27;61.95;97608.56;4927979;29;19934;-77
2022/02/18 04:41:37;;;;;;;;;;;;;;;7.17;62.43;97606.81;4931084;29;19935;-77
2022/02/18 04:44:31;;;;;;;;;;;;;;;7.04;62.77;97602.19;4931714;29;19926;-77
2022/02/18 04:47:00;;;;;;;;;;;;;;;7.07;62.83;97605.09;4928109;29;19934;-78
2022/02/18 04:49:29;;;;;;;;;;;;;;;7.06;62.73;97591.88;4928237;29;20010;-77
2022/02/18 04:52:11;;;;;;;;;;;;;;;7.08;63.26;97595.91;4929868;29;19931;-76
2022/02/18 04:54:39;;;;;;;;;;;;;;;6.97;63.02;97582.84;4932134;29;19934;-76
2022/02/18 04:57:07;;;;;;;;;;;;;;;7.12;62.49;97582.59;4932649;29;19930;-77
2022/02/18 04:59:37;;;;;;;;;;;;;;;7.08;62.76;97578.88;4932599;29;19935;-76
2022/02/18 05:02:05;;;;;;;;;;;;;;;7.07;62.93;97593.47;4931025;29;19938;-76
2022/02/18 05:04:33;;;;;;;;;;;;;;;7.08;62.93;97581.56;4898818;29;19974;-77
2022/02/18 05:07:01;;;;;;;;;;;;;;;7.05;63.08;97574.88;4916533;29;19955;-77
2022/02/18 05:09:29;;;;;;;;;;;;;;;6.98;63.36;97577.19;4932607;29;20009;-78
2022/02/18 05:11:57;;;;;;;;;;;;;;;6.99;63.56;97586.06;4915434;29;20330;-76
2022/02/18 05:14:25;;;;;;;;;;;;;;;7.14;62.86;97569.63;4933935;29;19935;-78
2022/02/18 05:16:54;;;;;;;;;;;;;;;7.20;62.60;97571.13;4925858;29;20732;-80
2022/02/18 05:19:25;;;;;;;;;;;;;;;7.21;62.79;97570.03;4917169;29;19938;-80
2022/02/18 05:21:56;;;;;;;;;;;;;;;7.09;62.85;97558.91;4915315;29;19939;-79
2022/02/18 05:24:23;;;;;;;;;;;;;;;7.01;63.20;97554.16;4930520;29;19981;-78
2022/02/18 05:26:53;;;;;;;;;;;;;;;6.97;63.53;97545.84;4930969;29;20045;-77
2022/02/18 05:29:21;;;;;;;;;;;;;;;6.91;63.75;97543.53;4932243;29;19982;-78
2022/02/18 05:31:49;;;;;;;;;;;;;;;6.99;63.72;97538.25;4929619;29;20025;-75
2022/02/18 05:34:18;;;;;;;;;;;;;;;6.92;63.51;97531.63;4915723;29;19927;-77
2022/02/18 05:36:47;;;;;;;;;;;;;;;6.96;63.80;97535.34;4913423;29;19933;-77
2022/02/18 05:39:15;;;;;;;;;;;;;;;6.94;63.68;97529.44;4916570;29;20397;-78
2022/02/18 05:41:46;;;;;;;;;;;;;;;6.99;62.83;97529.34;4930972;29;20370;-75
2022/02/18 05:44:14;;;;;;;;;;;;;;;7.09;62.78;97535.38;4930787;29;19931;-79
2022/02/18 05:46:42;;;;;;;;;;;;;;;7.28;62.88;97540.69;4924341;29;20338;-80
2022/02/18 05:49:10;;;;;;;;;;;;;;;7.28;62.23;97532.59;4925787;29;19930;-78
2022/02/18 05:51:39;;;;;;;;;;;;;;;7.15;63.16;97546.09;4932207;29;19967;-86
2022/02/18 05:54:07;;;;;;;;;;;;;;;7.25;62.07;97544.00;4916331;29;19950;-84
2022/02/18 05:56:35;;;;;;;;;;;;;;;7.20;62.51;97524.41;4930725;29;19981;-86
2022/02/18 05:59:05;;;;;;;;;;;;;;;7.11;62.79;97518.88;4933055;29;20026;-88
2022/02/18 06:01:43;;;;;;;;;;;;;;;7.17;62.54;97512.28;4929779;29;19927;-84
2022/02/18 06:04:10;;;;;;;;;;;;;;;7.10;62.70;97506.47;4933687;29;19933;-85
2022/02/18 06:07:04;;;;;;;;;;;;;;;7.12;62.89;97509.66;4919514;29;20373;-86
2022/02/18 06:09:33;;;;;;;;;;;;;;;7.07;63.33;97502.44;4932021;29;19926;-89
2022/02/18 06:12:01;;;;;;;;;;;;;;;7.07;63.01;97512.44;4919769;29;19911;-86
2022/02/18 06:14:29;;;;;;;;;;;;;;;7.16;62.91;97528.78;4930139;29;19927;-84
2022/02/18 06:16:57;;;;;;;;;;;;;;;7.04;62.96;97513.06;4912180;29;19937;-76
2022/02/18 06:19:25;;;;;;;;;;;;;;;7.05;63.00;97501.97;4947326;28;20453;-85
2022/02/18 06:21:54;;;;;;;;;;;;;;;7.05;62.84;97491.16;4931210;29;19983;-78
2022/02/18 06:24:24;;;;;;;;;;;;;;;7.16;62.46;97489.06;4932278;29;19930;-80
2022/02/18 06:26:52;;;;;;;;;;;;;;;7.20;62.17;97484.66;4926763;29;20363;-78
2022/02/18 06:29:20;;;;;;;;;;;;;;;7.21;62.43;97486.25;4933614;29;19927;-77
2022/02/18 06:31:48;;;;;;;;;;;;;;;7.18;62.28;97484.16;4927011;28;19955;-77
2022/02/18 06:34:16;;;;;;;;;;;;;;;7.11;62.06;97475.66;4929915;29;19977;-80
2022/02/18 06:36:45;;;;;;;;;;;;;;;7.17;62.16;97468.25;4931712;29;19931;-78
2022/02/18 06:39:13;;;;;;;;;;;;;;;7.22;62.12;97466.25;4929522;29;19927;-80
2022/02/18 06:41:47;;;;;;;;;;;;;;;7.18;62.41;97462.53;4932273;29;19926;-78
2022/02/18 06:44:16;;;;;;;;;;;;;;;7.18;62.27;97449.03;4929882;29;20025;-79
2022/02/18 06:46:47;;;;;;;;;;;;;;;7.50;61.13;97428.38;4931369;29;19937;-78
2022/02/18 06:49:14;;;;;;;;;;;;;;;7.39;60.74;97437.81;4929867;28;19927;-78
2022/02/18 06:51:42;;;;;;;;;;;;;;;7.24;62.32;97450.53;4915814;29;20413;-79
2022/02/18 06:54:12;;;;;;;;;;;;;;;7.24;62.72;97468.63;4931260;29;19926;-78
2022/02/18 06:57:01;;;;;;;;;;;;;;;7.30;62.19;97454.75;4931237;29;19934;-81
2022/02/18 06:59:29;;;;;;;;;;;;;;;7.39;61.56;97460.22;4931595;29;19935;-79
2022/02/18 07:02:21;;;;;;;;;;;;;;;7.43;61.96;97461.25;4925955;29;19982;-80
2022/02/18 07:04:49;;;;;;;;;;;;;;;7.38;62.16;97453.22;4932015;29;19934;-79
2022/02/18 07:07:18;;;;;;;;;;;;;;;7.37;61.34;97445.44;4926438;29;19934;-79
2022/02/18 07:09:46;;;;;;;;;;;;;;;7.52;60.71;97428.91;4934864;29;20208;-78
2022/02/18 07:12:15;;;;;;;;;;;;;;;7.55;60.45;97425.56;4930011;29;20285;-79
2022/02/18 07:14:43;;;;;;;;;;;;;;;7.43;60.68;97417.19;4934460;29;19942;-80
2022/02/18 07:17:14;;;;;;;;;;;;;;;7.44;60.53;97408.78;4913639;29;19965;-79
2022/02/18 07:19:43;;;;;;;;;;;;;;;7.48;60.95;97408.97;4929574;29;19927;-78
2022/02/18 07:22:11;;;;;;;;;;;;;;;7.44;60.74;97413.38;4935617;29;20410;-79
2022/02/18 07:24:39;;;;;;;;;;;;;;;7.52;60.24;97412.69;4933443;29;19951;-77
2022/02/18 07:27:06;;;;;;;;;;;;;;;7.44;60.92;97424.19;4933510;29;19935;-78
2022/02/18 07:29:36;;;;;;;;;;;;;;;7.48;61.11;97415.19;4930622;29;19970;-78
2022/02/18 07:32:04;;;;;;;;;;;;;;;7.46;60.73;97405.78;4935189;29;20377;-78
2022/02/18 07:34:32;;;;;;;;;;;;;;;7.59;60.20;97403.03;4934067;29;19927;-77
2022/02/18 07:37:00;;;;;;;;;;;;;;;7.60;61.10;97403.84;4934708;29;19927;-78
2022/02/18 07:39:28;;;;;;;;;;;;;;;7.57;61.15;97401.75;4933471;29;19938;-79
2022/02/18 07:41:56;;;;;;;;;;;;;;;7.70;60.70;97402.81;4933698;29;19967;-80
2022/02/18 07:44:28;;;;;;;;;;;;;;;7.74;60.14;97395.72;4932143;29;19939;-78
2022/02/18 07:46:58;;;;;;;;;;;;;;;7.77;59.80;97411.31;4933446;29;19931;-77
2022/02/18 07:49:47;;;;;;;;;;;;;;;7.71;60.54;97405.22;4931760;29;19934;-81
2022/02/18 07:52:15;;;;;;;;;;;;;;;7.77;60.38;97395.09;4936323;29;19933;-77
2022/02/18 07:54:44;;;;;;;;;;;;;;;7.77;60.20;97390.47;4921700;29;19930;-78
2022/02/18 07:57:12;;;;;;;;;;;;;;;7.68;60.50;97394.22;4936990;29;20704;-80
2022/02/18 07:59:40;;;;;;;;;;;;;;;7.79;60.15;97380.16;4931609;29;19935;-77
2022/02/18 08:02:09;;;;;;;;;;;;;;;7.89;61.01;97379.13;4929327;29;19931;-77
2022/02/18 08:04:40;;;;;;;;;;;;;;;7.96;60.52;97376.00;4935004;29;19989;-77
2022/02/18 08:07:10;;;;;;;;;;;;;;;8.00;60.39;97366.16;4917722;29;19933;-79
2022/02/18 08:09:38;;;;;;;;;;;;;;;8.04;60.39;97367.94;4910315;29;19935;-79
2022/02/18 08:12:06;;;;;;;;;;;;;;;7.86;61.62;97352.69;4933333;29;19927;-78
2022/02/18 08:14:34;;;;;;;;;;;;;;;7.90;61.72;97347.47;4933022;29;19934;-80
2022/02/18 08:17:02;;;;;;;;;;;;;;;7.91;61.72;97340.94;4931650;29;19927;-80
2022/02/18 08:19:58;;;;;;;;;;;;;;;7.91;62.24;97335.53;4932882;29;19927;-79
2022/02/18 08:22:29;;;;;;;;;;;;;;;7.92;61.92;97332.53;4931285;29;19934;-77
2022/02/18 08:24:58;;;;;;;;;;;;;;;7.68;63.13;97332.03;4932153;29;19935;-77
2022/02/18 08:27:26;;;;;;;;;;;;;;;7.77;62.60;97322.06;4918509;29;20021;-79
2022/02/18 08:29:54;;;;;;;;;;;;;;;7.84;63.37;97309.72;4933937;29;19934;-77
2022/02/18 08:32:22;;;;;;;;;;;;;;;8.03;62.37;97301.41;4927779;29;19962;-80
2022/02/18 08:34:50;;;;;;;;;;;;;;;8.05;62.95;97310.03;4933146;29;19934;-78
2022/02/18 08:37:19;;;;;;;;;;;;;;;8.20;62.18;97311.53;4933310;29;20042;-78
2022/02/18 08:39:47;;;;;;;;;;;;;;;8.11;62.42;97308.00;4930655;29;19927;-78
2022/02/18 08:42:19;;;;;;;;;;;;;;;8.05;62.06;97295.72;4934360;29;20401;-78
2022/02/18 08:44:46;;;;;;;;;;;;;;;8.05;61.77;97290.28;4912986;29;19927;-78
2022/02/18 08:47:14;;;;;;;;;;;;;;;8.13;62.06;97279.50;4914866;29;20393;-78
2022/02/18 08:49:42;;;;;;;;;;;;;;;8.12;62.21;97271.72;4933234;29;19927;-77
2022/02/18 08:52:10;;;;;;;;;;;;;;;8.11;62.08;97265.50;4934067;29;19941;-86
2022/02/18 08:54:44;;;;;;;;;;;;;;;8.25;61.29;97265.38;4933985;29;19927;-80
2022/02/18 08:57:12;;;;;;;;;;;;;;;8.25;61.36;97257.28;4919131;29;20336;-86
2022/02/18 08:59:40;;;;;;;;;;;;;;;8.19;61.92;97269.34;4952921;29;20168;-80
2022/02/18 09:02:09;;;;;;;;;;;;;;;8.11;63.14;97270.13;4930276;29;20297;-80
2022/02/18 09:04:37;;;;;;;;;;;;;;;8.14;62.74;97261.34;4929173;29;19926;-80
2022/02/18 09:07:08;;;;;;;;;;;;;;;8.10;62.00;97244.97;4912862;29;19946;-80
2022/02/18 09:09:36;;;;;;;;;;;;;;;8.13;62.94;97238.13;4913894;29;19934;-81
2022/02/18 09:12:08;;;;;;;;;;;;;;;8.19;62.93;97236.06;4930729;29;19970;-80
2022/02/18 09:14:37;;;;;;;;;;;;;;;8.20;62.62;97230.34;4928873;29;20393;-81
2022/02/18 09:17:19;;;;;;;;;;;;;;;8.27;62.04;97222.59;4912101;29;19934;-81
2022/02/18 09:19:48;;;;;;;;;;;;;;;8.25;62.25;97216.69;4930171;29;19934;-81
2022/02/18 09:22:15;;;;;;;;;;;;;;;8.30;62.67;97213.84;4931102;29;19934;-80
2022/02/18 09:24:43;;;;;;;;;;;;;;;8.48;61.86;97216.66;4911492;29;19930;-81
2022/02/18 09:27:12;;;;;;;;;;;;;;;8.52;61.24;97209.47;4919389;29;19981;-80
2022/02/18 09:29:40;;;;;;;;;;;;;;;8.60;60.99;97197.88;4932778;29;19931;-80
2022/02/18 09:32:08;;;;;;;;;;;;;;;8.57;61.14;97198.50;4923169;29;19930;-80
2022/02/18 09:34:36;;;;;;;;;;;;;;;8.60;61.24;97189.75;4911662;29;19935;-79
2022/02/18 09:37:04;;;;;;;;;;;;;;;8.61;61.91;97191.34;4928040;29;19927;-83
2022/02/18 09:39:33;;;;;;;;;;;;;;;8.79;60.06;97175.91;4933326;29;19999;-82
2022/02/18 09:42:01;;;;;;;;;;;;;;;8.65;60.77;97181.47;4917554;29;19988;-90
2022/02/18 09:44:32;;;;;;;;;;;;;;;8.81;59.94;97173.69;4933397;29;19931;-91
2022/02/18 09:47:00;;;;;;;;;;;;;;;8.87;60.09;97167.00;4911965;29;19934;-90
2022/02/18 09:49:28;;;;;;;;;;;;;;;8.94;60.97;97159.19;4934933;29;19994;-89
2022/02/18 09:51:56;;;;;;;;;;;;;;;9.08;60.19;97150.91;4918855;29;19926;-90
2022/02/18 09:54:26;;;;;;;;;;;;;;;9.06;60.56;97155.88;4935238;29;19938;-88
2022/02/18 09:56:54;;;;;;;;;;;;;;;9.17;59.93;97151.72;4935719;29;19934;-81
2022/02/18 09:59:24;;;;;;;;;;;;;;;9.18;60.24;97139.75;4933368;29;20010;-78
2022/02/18 10:01:55;;;;;;;;;;;;;;;9.18;59.45;97145.16;4926950;29;21786;-78
2022/02/18 10:07:15;;;;;;;;;;;;;;;9.23;60.36;97131.44;4932997;29;19961;-78
2022/02/18 10:09:44;;;;;;;;;;;;;;;9.28;59.71;97133.19;4934491;29;19933;-79
2022/02/18 10:12:12;;;;;;;;;;;;;;;9.21;60.62;97122.03;4931896;29;19931;-78
2022/02/18 10:14:51;;;;;;;;;;;;;;;9.30;59.88;97129.03;4931555;29;19927;-78
2022/02/18 10:17:21;;;;;;;;;;;;;;;9.33;61.13;97116.78;4927774;29;19930;-79
2022/02/18 10:19:52;;;;;;;;;;;;;;;9.26;62.01;97097.47;4933694;29;20333;-78
2022/02/18 10:22:23;;;;;;;;;;;;;;;9.55;60.96;97096.78;4931259;29;19963;-79
2022/02/18 10:24:52;;;;;;;;;;;;;;;9.47;60.77;97087.53;4907720;29;19991;-78
2022/02/18 10:27:24;;;;;;;;;;;;;;;9.62;60.44;97088.91;4907608;29;19934;-78
2022/02/18 10:29:55;;;;;;;;;;;;;;;9.90;59.59;97068.34;4929672;29;19931;-78
2022/02/18 10:32:25;;;;;;;;;;;;;;;9.60;61.44;97091.97;4906349;29;19935;-78
2022/02/18 10:34:53;;;;;;;;;;;;;;;9.76;60.24;97069.72;4931255;29;20357;-77
2022/02/18 10:37:22;;;;;;;;;;;;;;;9.78;60.83;97059.34;4931970;29;19962;-78
2022/02/18 10:39:50;;;;;;;;;;;;;;;9.91;59.39;97058.34;4931709;29;20018;-79
2022/02/18 10:42:18;;;;;;;;;;;;;;;9.75;60.96;97059.97;4907738;29;19931;-78
2022/02/18 10:44:46;;;;;;;;;;;;;;;9.75;60.96;97071.66;4924869;29;19935;-78
2022/02/18 10:47:26;;;;;;;;;;;;;;;9.82;60.61;97049.44;4929125;29;19974;-79
2022/02/18 10:49:58;;;;;;;;;;;;;;;10.03;60.69;97050.28;4931690;29;19926;-78
2022/02/18 10:52:25;;;;;;;;;;;;;;;10.03;60.81;97044.06;4902706;29;19941;-77
2022/02/18 10:54:54;;;;;;;;;;;;;;;10.20;60.20;97041.22;4916072;29;19982;-76
2022/02/18 10:57:23;;;;;;;;;;;;;;;10.25;59.42;97035.63;4926590;29;19978;-79
2022/02/18 10:59:52;;;;;;;;;;;;;;;10.38;59.40;97020.97;4925542;29;20021;-77
2022/02/18 11:02:36;;;;;;;;;;;;;;;10.08;60.70;97025.66;4919152;29;19931;-74
2022/02/18 11:05:30;;;;;;;;;;;;;;;9.96;61.59;97031.81;4951614;29;19990;-78
2022/02/18 11:07:59;;;;;;;;;;;;;;;10.10;60.46;97011.75;4913547;29;19935;-78
2022/02/18 11:10:34;;;;;;;;;;;;;;;10.28;60.27;97015.97;4934328;29;19927;-78
2022/02/18 11:13:26;;;;;;;;;;;;;;;10.32;60.18;96991.66;4931716;29;20293;-78
2022/02/18 11:15:54;;;;;;;;;;;;;;;10.20;61.19;96989.66;4931390;28;19937;-78
2022/02/18 11:18:22;;;;;;;;;;;;;;;10.19;61.55;96988.06;4928494;29;19934;-78
2022/02/18 11:20:50;;;;;;;;;;;;;;;10.28;60.97;96980.69;4930741;29;19927;-81
2022/02/18 11:23:21;;;;;;;;;;;;;;;10.48;60.18;96968.19;4932956;29;19994;-83
2022/02/18 11:25:48;;;;;;;;;;;;;;;10.35;61.01;96958.44;4935207;29;19934;-78
2022/02/18 11:28:17;;;;;;;;;;;;;;;10.58;59.75;96962.34;4929797;29;20417;-77
2022/02/18 11:30:45;;;;;;;;;;;;;;;10.56;60.29;96956.47;4921572;29;20461;-82
2022/02/18 11:33:16;;;;;;;;;;;;;;;10.95;58.70;96949.66;4934536;29;19995;-77
2022/02/18 11:35:49;;;;;;;;;;;;;;;10.76;59.66;96949.41;4929168;29;19927;-78
2022/02/18 11:38:25;;;;;;;;;;;;;;;10.73;60.06;96925.63;4929563;29;19926;-74
2022/02/18 11:40:54;;;;;;;;;;;;;;;10.76;60.50;96922.25;4933372;29;20025;-74
2022/02/18 11:43:23;;;;;;;;;;;;;;;10.90;59.85;96917.28;4931826;29;19981;-77
2022/02/18 11:45:54;;;;;;;;;;;;;;;10.79;59.14;96907.19;4915060;29;20073;-75
2022/02/18 11:48:41;;;;;;;;;;;;;;;10.71;60.81;96900.72;4932972;29;19985;-75
2022/02/18 11:51:16;;;;;;;;;;;;;;;10.75;60.51;96898.91;4932501;29;19935;-74
2022/02/18 11:53:46;;;;;;;;;;;;;;;10.92;59.00;96874.28;4934232;29;20047;-74
2022/02/18 11:56:18;;;;;;;;;;;;;;;11.01;60.28;96879.59;4932239;29;19974;-75
2022/02/18 11:59:00;;;;;;;;;;;;;;;11.10;58.86;96874.03;4934438;29;19926;-74
2022/02/18 12:01:47;;;;;;;;;;;;;;;11.24;58.77;96869.06;4927791;29;19994;-74
2022/02/18 12:04:39;;;;;;;;;;;;;;;11.29;58.99;96855.22;4935473;29;19949;-75
2022/02/18 12:07:28;;;;;;;;;;;;;;;11.30;59.56;96854.09;4953332;29;19942;-74
2022/02/18 12:10:19;;;;;;;;;;;;;;;11.64;57.41;96843.84;4934007;29;19931;-78
2022/02/18 12:12:48;;;;;;;;;;;;;;;11.65;57.01;96829.88;4933384;29;19966;-79
2022/02/18 12:15:22;;;;;;;;;;;;;;;11.72;56.71;96818.44;4930373;29;19927;-77
2022/02/18 12:17:51;;;;;;;;;;;;;;;11.63;58.91;96821.28;4914033;29;19946;-74
2022/02/18 12:20:21;;;;;;;;;;;;;;;11.88;56.91;96805.72;4933581;29;19927;-74
2022/02/18 12:22:49;;;;;;;;;;;;;;;11.92;56.69;96795.69;4930258;29;20322;-74
2022/02/18 12:25:25;;;;;;;;;;;;;;;11.98;56.39;96793.50;4916206;29;20014;-77
2022/02/18 12:27:54;;;;;;;;;;;;;;;11.69;57.94;96795.41;4933322;29;19982;-74
2022/02/18 12:30:31;;;;;;;;;;;;;;;11.96;57.59;96777.53;4930582;29;19926;-77
2022/02/18 12:32:59;;;;;;;;;;;;;;;12.01;57.03;96771.06;4916739;29;19950;-74
2022/02/18 12:35:28;;;;;;;;;;;;;;;11.97;57.17;96754.63;4929602;29;21015;-76
2022/02/18 12:37:56;;;;;;;;;;;;;;;12.24;56.12;96757.66;4933681;29;19962;-84
2022/02/18 12:40:27;;;;;;;;;;;;;;;11.97;57.23;96753.84;4933069;29;20376;-77
2022/02/18 12:42:58;;;;;;;;;;;;;;;12.03;56.51;96753.22;4932118;29;19926;-75
2022/02/18 12:45:39;;;;;;;;;;;;;;;12.06;57.18;96749.81;4925205;29;20461;-83
2022/02/18 12:48:08;;;;;;;;;;;;;;;12.21;56.55;96736.59;4915014;29;19930;-76
2022/02/18 12:50:38;;;;;;;;;;;;;;;12.14;57.04;96728.22;4932830;29;20397;-75
2022/02/18 12:53:06;;;;;;;;;;;;;;;11.99;57.27;96727.88;4916291;29;19970;-76
2022/02/18 12:55:37;;;;;;;;;;;;;;;12.03;57.02;96719.78;4932738;29;19933;-75
2022/02/18 12:58:12;;;;;;;;;;;;;;;12.26;56.73;96728.16;4918596;29;19927;-76
2022/02/18 13:00:40;;;;;;;;;;;;;;;12.31;56.88;96714.28;4928877;29;19934;-76
2022/02/18 13:03:08;;;;;;;;;;;;;;;12.39;56.75;96717.94;4930988;29;19927;-77
2022/02/18 13:05:37;;;;;;;;;;;;;;;12.42;57.74;96709.88;4915913;29;19974;-76
2022/02/18 13:08:06;;;;;;;;;;;;;;;12.59;55.90;96708.72;4944348;29;19937;-78
2022/02/18 13:11:00;;;;;;;;;;;;;;;12.56;56.24;96702.03;4939811;29;19926;-76
2022/02/18 13:13:34;;;;;;;;;;;;;;;12.66;57.37;96702.63;4930652;29;21156;-75
2022/02/18 13:16:02;;;;;;;;;;;;;;;12.67;55.89;96693.31;4928196;29;20030;-75
2022/02/18 13:18:32;;;;;;;;;;;;;;;12.61;56.50;96692.78;4930557;29;20035;-75